Impacts METAR Board
IDs:

KLGA - New York/La Guardia, NY, US

Updated at: 0400 UTC 17 Jul 2018
Potential Impact None Slight Moderate High
Time 16/16Z 16/17Z 16/18Z 16/19Z 16/20Z 16/21Z 16/22Z 16/23Z 17/00Z 17/01Z 17/02Z 17/03Z 17/04Z
Temp90 91 92 90 89 90 86 85 85 83 83 82 83
Dewpt70 69 70 72 71 70 69 70 71 71 71 70 70
Altim29.96 29.95 29.94 29.93 29.92 29.91 29.90 29.90 29.89 29.89 29.91 29.90 29.91
VIS10 10 10 10 10 10 10 10 10 10 10 10 10
CIG-- -- -- -- -- -- -- 250 250 250 -- 250 --
CoverSCTSCTSCTSCTSCTSCTSCTBKNBKNBKNSCTBKNSCT
FltCatVFRVFRVFRVFRVFRVFRVFRVFRVFRVFRVFRVFRVFR
WX--------------------------
WDir0270180160170170170170150180160160190
WSpd3 5 11 16 17 15 15 8 8 7 7 8 7
WGst-- -- -- 20 -- -- 21 -- -- -- -- -- --
Raw hourly METARs
KLGA 161551Z VRB03KT 10SM SCT040 SCT150 SCT250 32/21 A2996 RMK AO2 SLP146 T03220211 $
KLGA 161651Z 27005KT 10SM SCT045 SCT150 SCT250 33/21 A2995 RMK AO2 SLP142 T03280206 $
KLGA 161751Z 18011KT 10SM SCT045 SCT150 SCT250 33/21 A2994 RMK AO2 SLP137 TCU DSNT W T03330211 10339 20272 58013 $
KLGA 161851Z 16016G20KT 10SM SCT047 SCT150 SCT250 32/22 A2993 RMK AO2 WSHFT 1751 SLP134 T03220222 $
KLGA 161951Z 17017KT 10SM FEW045 SCT150 SCT250 32/22 A2992 RMK AO2 SLP131 T03170217 $
KLGA 162051Z 17015KT 10SM FEW045 SCT140 SCT250 32/21 A2991 RMK AO2 SLP129 T03220211 58008 $
KLGA 162151Z 17015G21KT 10SM FEW045 FEW140 SCT250 30/21 A2990 RMK AO2 LTG DSNT N SLP124 T03000206 $
KLGA 162251Z COR 17008KT 10SM FEW045 SCT140 BKN250 29/21 A2990 RMK AO2 SLP124 T02940211 $
KLGA 162351Z 15008KT 080V170 10SM FEW045 FEW130 BKN250 29/22 A2989 RMK AO2 SLP122 T02940217 10333 20289 56007 $
KLGA 170051Z 18007KT 10SM FEW050 FEW130 BKN250 28/22 A2989 RMK AO2 SLP121 T02830217 $
KLGA 170151Z 16007KT 10SM FEW045 SCT250 28/22 A2991 RMK AO2 SLP127 T02830217 $
KLGA 170251Z 16008KT 10SM FEW040 BKN250 28/21 A2990 RMK AO2 SLP125 T02780211 50003 $
KLGA 170351Z 19007KT 10SM SCT250 28/21 A2991 RMK AO2 SLP127 T02830211 $



Page loaded:  04:03 UTC  |   09:03 PM Pacific  |   10:03 PM Mountain  |   11:03 PM Central  |   12:03 AM Eastern

 

ADVISORIES

FORECASTS

FORECASTS

OBSERVATIONS

USER TOOLS

ABOUT US